Luray, Virginia
Current Conditions -  °F | °C
As of 11:35 PM on Thursday 20 Nov 2014 (Local Time) from KLUA Reporting Station
Clear Clear  
Wind Chill: 27°   Ceiling: Unl
Heat Index: 36°   Visibility: 10mi
Dew Point: 12°   Wind: 13mph
Humidity: 38%   Direction: 290°WNW
Pressure: 30.1"   Gusts: 18mph
Location:  38.67°N, 78.46°W
Report Text: KLUA 210435Z AUTO 29011G16KT 10SM CLR 02/M11 A3010 RMK AO2
Loading
Personal Weather Stations






























Interactive Weather Map New forecast layout! Learn more

10-Day Weather Forecast

Advertisements
Track Severe Weather on mobile